Time;durP1;ratioP1;P1;durP2;ratioP2;P2;SDS_P1;SDS_P2;PMS_P1;PMS_P2;Temp;Humidity;BMP_temperature;BMP_pressure;BME280_temperature;BME280_humidity;BME280_pressure;Samples;Min_cycle;Max_cycle;Signal;HPM_P1;HPM_P2
2023/10/11 00:00:33;;;;;;;15.37;4.47;;;;;;;16.86;79.32;101267.06;5092207;28;20028;-88
2023/10/11 00:05:53;;;;;;;9.38;3.70;;;;;;;16.80;79.98;101266.16;5093592;28;20507;-87
2023/10/11 00:08:19;;;;;;;7.15;3.67;;;;;;;16.73;79.74;101264.66;5091556;28;20050;-88
2023/10/11 00:10:55;;;;;;;6.95;3.70;;;;;;;16.75;79.57;101265.22;5075572;28;20071;-87
2023/10/11 00:13:23;;;;;;;9.33;4.03;;;;;;;16.74;79.14;101267.13;5094757;28;20110;-87
2023/10/11 00:15:53;;;;;;;11.70;4.00;;;;;;;16.70;79.01;101262.38;5096026;28;20032;-86
2023/10/11 00:18:26;;;;;;;12.10;3.95;;;;;;;16.67;79.29;101269.19;5096609;28;20028;-86
2023/10/11 00:20:52;;;;;;;15.73;3.70;;;;;;;16.62;79.15;101272.69;5096561;28;20032;-87
2023/10/11 00:23:26;;;;;;;8.18;4.32;;;;;;;16.59;79.21;101275.88;5097022;28;20036;-87
2023/10/11 00:25:54;;;;;;;7.57;3.90;;;;;;;16.58;79.20;101263.28;5096411;28;20350;-87
2023/10/11 00:28:24;;;;;;;7.68;3.90;;;;;;;16.56;79.64;101275.56;5096199;28;20116;-87
2023/10/11 00:31:01;;;;;;;8.57;4.50;;;;;;;16.52;79.63;101267.00;5095870;28;20468;-87
2023/10/11 00:33:28;;;;;;;10.85;4.10;;;;;;;16.48;80.28;101276.78;5097418;28;20035;-87
2023/10/11 00:35:55;;;;;;;8.65;4.20;;;;;;;16.47;79.89;101286.88;5097025;28;20133;-87
2023/10/11 00:38:27;;;;;;;8.07;3.77;;;;;;;16.50;79.76;101271.88;5095891;28;20032;-88
2023/10/11 00:41:12;;;;;;;14.20;3.80;;;;;;;16.46;80.22;101277.03;5097225;28;20039;-87
2023/10/11 00:43:55;;;;;;;9.43;3.83;;;;;;;16.44;80.32;101268.22;5096141;28;20032;-87
2023/10/11 00:46:29;;;;;;;10.50;3.78;;;;;;;16.40;80.59;101267.06;5096536;28;20024;-86
2023/10/11 00:49:05;;;;;;;8.25;4.15;;;;;;;16.36;80.76;101267.75;5095773;28;20123;-87
2023/10/11 00:51:32;;;;;;;12.07;4.27;;;;;;;16.30;81.58;101264.94;5096702;28;20024;-87
2023/10/11 00:54:00;;;;;;;8.23;3.95;;;;;;;16.34;81.35;101269.94;5078787;28;20032;-87
2023/10/11 00:56:31;;;;;;;9.73;4.00;;;;;;;16.30;81.92;101266.84;5095860;28;20032;-87
2023/10/11 00:58:58;;;;;;;9.20;4.18;;;;;;;16.23;82.30;101257.94;5096884;28;20024;-87
2023/10/11 01:01:24;;;;;;;7.90;3.90;;;;;;;16.18;82.86;101260.56;5095797;28;20432;-87
2023/10/11 01:03:51;;;;;;;9.20;4.37;;;;;;;16.10;83.47;101262.59;5095439;28;20063;-87
2023/10/11 01:06:17;;;;;;;9.75;3.97;;;;;;;16.06;83.69;101252.38;5095292;28;20032;-87
2023/10/11 01:08:42;;;;;;;9.07;4.17;;;;;;;16.02;84.20;101256.69;5096579;28;20036;-87
2023/10/11 01:11:13;;;;;;;14.18;4.30;;;;;;;15.95;84.33;101263.13;5097158;28;20024;-87
2023/10/11 01:13:50;;;;;;;10.63;4.40;;;;;;;15.91;84.80;101264.66;5097076;28;20093;-86
2023/10/11 01:16:17;;;;;;;7.60;4.13;;;;;;;15.87;85.33;101258.03;5095131;28;20028;-87
2023/10/11 01:18:43;;;;;;;8.68;4.30;;;;;;;15.82;85.68;101251.63;5096820;28;20039;-87
2023/10/11 01:21:09;;;;;;;7.13;4.20;;;;;;;15.77;85.61;101253.13;5096630;28;20032;-87
2023/10/11 01:23:35;;;;;;;10.90;4.30;;;;;;;15.71;86.30;101256.84;5095353;28;20028;-87
2023/10/11 01:26:06;;;;;;;8.43;3.90;;;;;;;15.67;86.54;101254.81;5093980;28;20138;-87
2023/10/11 01:28:34;;;;;;;8.32;3.83;;;;;;;15.65;86.60;101256.94;5078730;28;20454;-87
2023/10/11 01:31:08;;;;;;;10.70;4.30;;;;;;;15.60;87.04;101252.19;5095016;28;20372;-88
2023/10/11 01:33:37;;;;;;;8.40;4.25;;;;;;;15.56;87.50;101253.75;5094960;28;20048;-87
2023/10/11 01:36:09;;;;;;;8.13;4.25;;;;;;;15.52;87.50;101242.47;5094548;28;20032;-86
2023/10/11 01:38:49;;;;;;;8.30;3.80;;;;;;;15.49;87.87;101244.84;5094740;28;20036;-87
2023/10/11 01:41:18;;;;;;;7.90;3.92;;;;;;;15.42;88.38;101244.97;5095047;28;20024;-87
2023/10/11 01:43:46;;;;;;;7.13;3.97;;;;;;;15.36;88.80;101241.28;5094336;28;20032;-87
2023/10/11 01:46:13;;;;;;;6.80;4.00;;;;;;;15.35;88.70;101241.50;5094505;28;20059;-87
2023/10/11 01:48:38;;;;;;;12.00;4.68;;;;;;;15.30;89.16;101235.94;5061563;28;20040;-87
2023/10/11 01:51:09;;;;;;;8.50;4.00;;;;;;;15.26;89.80;101233.69;5095367;28;20082;-87
2023/10/11 01:53:35;;;;;;;9.68;3.80;;;;;;;15.20;90.29;101236.53;5094489;28;20110;-87
2023/10/11 01:56:03;;;;;;;8.10;4.07;;;;;;;15.16;90.49;101233.44;5094646;28;20024;-87
2023/10/11 01:58:28;;;;;;;9.05;4.07;;;;;;;15.13;90.70;101231.16;5094120;28;20024;-87
2023/10/11 02:00:55;;;;;;;9.40;3.80;;;;;;;15.09;91.42;101228.06;5094655;28;20046;-87
2023/10/11 02:03:20;;;;;;;10.48;5.13;;;;;;;15.05;91.35;101226.88;5094303;28;20036;-87
2023/10/11 02:05:46;;;;;;;12.20;4.00;;;;;;;15.01;91.64;101217.47;5094079;28;20032;-87
2023/10/11 02:08:17;;;;;;;10.87;4.00;;;;;;;14.97;92.13;101219.03;5095483;28;20107;-87
2023/10/11 02:10:45;;;;;;;11.98;4.25;;;;;;;14.92;nan;101210.72;5094533;28;20024;-87
2023/10/11 02:13:11;;;;;;;9.68;3.83;;;;;;;14.85;93.44;101204.53;5094306;28;20452;-87
2023/10/11 02:15:39;;;;;;;11.18;4.25;;;;;;;14.82;93.90;101202.25;5094343;28;20040;-87
2023/10/11 02:18:07;;;;;;;8.50;4.25;;;;;;;14.82;93.84;101202.25;5094010;28;20070;-87
2023/10/11 02:20:34;;;;;;;8.37;4.20;;;;;;;14.83;94.05;101206.66;5094049;28;20133;-87
2023/10/11 02:23:00;;;;;;;10.70;4.80;;;;;;;14.80;94.36;101196.22;5095261;28;20039;-86
2023/10/11 02:25:26;;;;;;;7.75;3.97;;;;;;;14.76;94.73;101200.47;5095125;28;20028;-86
2023/10/11 02:27:53;;;;;;;9.98;3.85;;;;;;;14.74;94.88;101195.25;5076924;28;20032;-87
2023/10/11 02:30:27;;;;;;;9.33;4.17;;;;;;;14.73;95.13;101201.75;5093929;28;20039;-87
2023/10/11 02:33:00;;;;;;;12.57;4.30;;;;;;;14.71;95.18;101182.06;5093470;28;20081;-87
2023/10/11 02:35:31;;;;;;;8.05;4.35;;;;;;;14.69;95.62;101184.19;5093962;28;20479;-87
2023/10/11 02:37:59;;;;;;;8.25;4.07;;;;;;;14.66;96.15;101190.13;5077263;28;20028;-87
2023/10/11 02:40:25;;;;;;;9.65;4.70;;;;;;;14.68;95.90;101190.72;5093484;28;20042;-87
2023/10/11 02:42:55;;;;;;;8.97;4.20;;;;;;;14.69;95.69;101198.69;5094324;28;20027;-87
2023/10/11 02:45:24;;;;;;;11.32;4.18;;;;;;;14.67;95.99;101195.34;5095358;28;20024;-87
2023/10/11 02:47:59;;;;;;;10.50;4.30;;;;;;;14.67;96.22;101195.34;5094353;28;20028;-87
2023/10/11 02:50:27;;;;;;;7.17;4.30;;;;;;;14.64;96.12;101192.25;5093865;28;20038;-87
2023/10/11 02:52:59;;;;;;;10.65;4.88;;;;;;;14.62;96.81;101186.22;5060734;28;20044;-87
2023/10/11 02:55:26;;;;;;;12.93;4.20;;;;;;;14.60;97.01;101188.28;5093621;28;20410;-87
2023/10/11 02:58:07;;;;;;;9.45;4.40;;;;;;;14.56;97.34;101185.22;5094589;28;20028;-87
2023/10/11 03:00:36;;;;;;;14.55;5.05;;;;;;;14.54;97.60;101192.78;5093254;28;20049;-87
2023/10/11 03:03:08;;;;;;;7.97;4.73;;;;;;;14.51;98.08;101190.53;5093862;28;20032;-87
2023/10/11 03:05:37;;;;;;;9.18;4.70;;;;;;;14.53;98.12;101194.69;5093467;28;20137;-87
2023/10/11 03:08:16;;;;;;;9.70;5.28;;;;;;;14.55;97.87;101197.19;5093399;28;20036;-87
2023/10/11 03:10:44;;;;;;;10.52;4.80;;;;;;;14.52;98.59;101195.75;5078608;28;20375;-87
2023/10/11 03:13:12;;;;;;;10.25;4.53;;;;;;;14.52;98.59;101184.84;5092935;28;20062;-87
2023/10/11 03:15:38;;;;;;;10.13;5.07;;;;;;;14.51;98.47;101183.19;5093411;28;20085;-87
2023/10/11 03:18:06;;;;;;;10.25;4.90;;;;;;;14.46;99.13;101174.03;5093228;28;20456;-87
2023/10/11 03:20:36;;;;;;;10.23;4.43;;;;;;;14.44;99.88;101176.13;5076051;28;20480;-87
2023/10/11 03:23:04;;;;;;;11.23;5.15;;;;;;;14.38;100.00;101176.03;5093228;28;20107;-87
2023/10/11 03:25:32;;;;;;;9.40;4.97;;;;;;;14.41;100.00;101168.41;5076412;28;20056;-87
2023/10/11 03:27:57;;;;;;;9.63;4.77;;;;;;;14.38;100.00;101170.56;5092812;28;20035;-88
2023/10/11 03:30:24;;;;;;;9.65;4.57;;;;;;;14.36;100.00;101171.84;5092811;28;20036;-87
2023/10/11 03:32:50;;;;;;;9.45;4.55;;;;;;;14.34;100.00;101174.81;5092874;28;20109;-87
2023/10/11 03:35:18;;;;;;;10.27;4.90;;;;;;;14.31;100.00;101171.72;5075965;28;20122;-87
2023/10/11 03:38:16;;;;;;;11.82;5.13;;;;;;;14.29;100.00;101171.97;5094462;28;20032;-87
2023/10/11 03:40:54;;;;;;;12.60;5.22;;;;;;;14.27;100.00;101167.78;5094297;28;20039;-87
2023/10/11 03:43:20;;;;;;;8.27;4.40;;;;;;;14.26;100.00;101169.69;5093212;28;20074;-87
2023/10/11 03:45:58;;;;;;;11.30;4.95;;;;;;;14.27;100.00;101165.06;5093835;28;20024;-87
2023/10/11 03:48:28;;;;;;;11.93;5.20;;;;;;;14.24;100.00;101173.72;5092369;28;20036;-87
2023/10/11 03:50:55;;;;;;;12.00;5.15;;;;;;;14.20;100.00;101168.72;5076345;28;20105;-87
2023/10/11 03:53:24;;;;;;;10.95;4.75;;;;;;;14.18;100.00;101168.09;5092397;28;20040;-87
2023/10/11 03:55:50;;;;;;;10.35;5.15;;;;;;;14.17;100.00;101163.75;5092593;28;20032;-87
2023/10/11 04:01:12;;;;;;;11.35;5.63;;;;;;;14.21;100.00;101156.72;5093813;28;20048;-88
2023/10/11 04:03:42;;;;;;;11.00;5.15;;;;;;;14.20;100.00;101165.16;5092494;28;20142;-88
2023/10/11 04:06:14;;;;;;;12.20;5.28;;;;;;;14.20;100.00;101163.28;5092228;28;20105;-88
2023/10/11 04:08:48;;;;;;;11.60;5.47;;;;;;;14.20;100.00;101160.53;5092666;28;20031;-88
2023/10/11 04:11:22;;;;;;;11.25;5.32;;;;;;;14.17;100.00;101151.97;5092364;28;20036;-88
2023/10/11 04:13:49;;;;;;;12.95;5.85;;;;;;;14.17;100.00;101160.16;5094169;28;20035;-88
2023/10/11 04:16:16;;;;;;;14.70;5.82;;;;;;;14.11;100.00;101151.00;5075560;28;20028;-88
2023/10/11 04:18:43;;;;;;;15.13;5.85;;;;;;;14.16;100.00;101142.97;5092310;28;20028;-88
2023/10/11 04:21:26;;;;;;;9.33;5.60;;;;;;;14.14;100.00;101142.38;5092269;28;20101;-88
2023/10/11 04:24:00;;;;;;;10.25;5.53;;;;;;;14.13;100.00;101137.97;5092535;28;20020;-88
2023/10/11 04:28:53;;;;;;;12.68;5.60;;;;;;;14.13;100.00;101148.88;5091965;28;20109;-88
2023/10/11 04:31:31;;;;;;;12.67;6.00;;;;;;;14.10;100.00;101138.44;5092703;28;20447;-88
2023/10/11 04:33:58;;;;;;;14.98;6.18;;;;;;;14.08;100.00;101142.47;5092460;28;20030;-88
2023/10/11 04:36:24;;;;;;;11.43;5.80;;;;;;;14.16;100.00;101139.41;5092847;28;20028;-88
2023/10/11 04:38:50;;;;;;;15.17;5.60;;;;;;;14.21;100.00;101139.53;5074913;28;20394;-88
2023/10/11 04:41:18;;;;;;;13.70;5.70;;;;;;;14.23;100.00;101142.03;5075605;28;20032;-88
2023/10/11 04:43:50;;;;;;;12.03;5.73;;;;;;;14.24;100.00;101146.44;5091946;28;20270;-88
2023/10/11 04:46:16;;;;;;;8.75;5.15;;;;;;;14.22;100.00;101146.66;5076135;28;20028;-88
2023/10/11 04:48:44;;;;;;;16.50;6.57;;;;;;;14.19;100.00;101147.94;5092233;28;20124;-88
2023/10/11 04:51:23;;;;;;;12.30;5.80;;;;;;;14.14;100.00;101150.56;5110200;28;20069;-88
2023/10/11 04:53:57;;;;;;;11.38;5.25;;;;;;;14.12;100.00;101143.66;5093390;28;20035;-88
2023/10/11 04:59:16;;;;;;;13.82;6.03;;;;;;;14.01;100.00;101148.00;5093273;28;20101;-88
2023/10/11 05:04:26;;;;;;;13.57;5.97;;;;;;;13.98;100.00;101152.03;5096991;28;20040;-88
2023/10/11 05:06:53;;;;;;;11.27;5.63;;;;;;;13.97;100.00;101160.44;5095222;28;20036;-88
2023/10/11 05:12:20;;;;;;;12.05;6.25;;;;;;;13.90;100.00;101149.63;5096596;28;20062;-88
2023/10/11 05:14:40;;;;;;;15.40;6.20;;;;;;;13.87;100.00;101158.25;5095202;28;20044;-88
2023/10/11 05:19:47;;;;;;;12.32;6.07;;;;;;;13.86;100.00;101154.72;5096446;28;20468;-89
2023/10/11 05:22:23;;;;;;;15.33;6.30;;;;;;;13.90;100.00;101160.53;5095762;28;20464;-88
2023/10/11 05:25:12;;;;;;;12.20;6.53;;;;;;;13.91;100.00;101167.66;5095412;28;20456;-88
2023/10/11 05:27:47;;;;;;;10.50;6.07;;;;;;;13.90;100.00;101160.53;5095125;28;20020;-88
2023/10/11 05:30:26;;;;;;;10.82;6.07;;;;;;;13.89;100.00;101179.84;5080104;28;20048;-88
2023/10/11 05:33:30;;;;;;;16.73;6.60;;;;;;;13.89;100.00;101169.75;5096111;28;20369;-88
2023/10/11 05:52:16;;;;;;;13.00;6.35;;;;;;;13.98;100.00;101162.09;5096095;28;20043;-88
2023/10/11 05:54:45;;;;;;;14.05;6.15;;;;;;;13.97;100.00;101155.00;5094816;28;20032;-88
2023/10/11 05:57:13;;;;;;;12.88;6.70;;;;;;;13.99;100.00;101169.22;5094377;28;20055;-88
2023/10/11 05:59:42;;;;;;;16.10;7.45;;;;;;;14.04;100.00;101177.56;5094231;28;20043;-88
2023/10/11 06:02:13;;;;;;;12.57;6.57;;;;;;;14.04;100.00;101172.94;5093817;28;20024;-88
2023/10/11 06:04:42;;;;;;;12.30;6.93;;;;;;;14.06;100.00;101180.88;5095576;28;20376;-88
2023/10/11 06:07:13;;;;;;;14.57;6.45;;;;;;;14.03;100.00;101176.72;5094273;28;20050;-88
2023/10/11 06:09:43;;;;;;;9.90;5.97;;;;;;;14.05;100.00;101176.47;5094774;28;20113;-88
2023/10/11 06:12:10;;;;;;;15.93;6.85;;;;;;;14.07;100.00;101174.38;5093964;28;20071;-88
2023/10/11 06:14:36;;;;;;;14.63;6.43;;;;;;;14.10;100.00;101176.63;5077677;28;20032;-88
2023/10/11 06:17:05;;;;;;;11.23;7.03;;;;;;;14.17;100.00;101171.06;5095184;28;20384;-88
2023/10/11 06:19:31;;;;;;;10.40;6.40;;;;;;;14.17;100.00;101166.47;5094775;28;20123;-88
2023/10/11 06:21:57;;;;;;;13.48;7.03;;;;;;;14.21;100.00;101170.38;5093446;28;20103;-88
2023/10/11 06:24:30;;;;;;;16.33;6.70;;;;;;;14.24;100.00;101173.72;5095039;28;20024;-88
2023/10/11 06:27:11;;;;;;;15.48;6.38;;;;;;;14.25;100.00;101168.03;5094194;28;20477;-88
2023/10/11 06:29:45;;;;;;;19.73;6.88;;;;;;;14.32;100.00;101162.47;5079052;28;20399;-88
2023/10/11 06:32:11;;;;;;;12.02;6.70;;;;;;;14.38;100.00;101170.56;5093655;28;20147;-88
2023/10/11 06:34:47;;;;;;;14.32;6.15;;;;;;;14.41;100.00;101169.28;5095148;28;20499;-88
2023/10/11 06:37:17;;;;;;;12.50;6.70;;;;;;;14.44;100.00;101176.13;5078175;28;20040;-88
2023/10/11 06:42:14;;;;;;;12.98;6.90;;;;;;;14.51;100.00;101174.16;5094653;28;20040;-88
2023/10/11 06:44:49;;;;;;;13.88;7.07;;;;;;;14.56;100.00;101177.84;5094064;28;20054;-88
2023/10/11 06:47:19;;;;;;;15.20;6.67;;;;;;;14.58;100.00;101177.59;5093551;28;20028;-88
2023/10/11 06:49:53;;;;;;;13.48;7.60;;;;;;;14.61;100.00;101179.03;5092843;28;20024;-88
2023/10/11 06:52:25;;;;;;;12.23;6.50;;;;;;;14.65;100.00;101172.91;5093607;28;20028;-88
2023/10/11 06:57:40;;;;;;;16.80;6.97;;;;;;;14.74;100.00;101187.06;5095137;28;20482;-88
2023/10/11 07:00:23;;;;;;;13.30;6.63;;;;;;;14.76;100.00;101176.72;5093152;28;20472;-88
2023/10/11 07:02:52;;;;;;;12.52;6.72;;;;;;;14.82;100.00;101181.25;5093301;28;20028;-88
2023/10/11 07:05:21;;;;;;;11.82;7.07;;;;;;;14.84;100.00;101179.13;5093152;28;20032;-88
2023/10/11 07:07:52;;;;;;;15.88;7.28;;;;;;;14.91;100.00;101182.56;5093035;28;20055;-87
2023/10/11 07:10:32;;;;;;;15.10;7.80;;;;;;;14.97;100.00;101188.13;5092840;28;20135;-88
2023/10/11 07:13:05;;;;;;;13.10;6.37;;;;;;;14.99;100.00;101194.22;5093504;28;20032;-88
2023/10/11 07:15:41;;;;;;;16.00;6.88;;;;;;;15.04;100.00;101206.09;5094335;28;20028;-88
2023/10/11 07:18:28;;;;;;;16.38;6.57;;;;;;;15.08;100.00;101210.00;5093895;28;20025;-88
2023/10/11 07:21:07;;;;;;;16.35;6.65;;;;;;;15.13;100.00;101217.50;5093894;28;20047;-88
2023/10/11 07:23:55;;;;;;;13.02;6.28;;;;;;;15.19;100.00;101215.72;5093238;28;20032;-88
2023/10/11 07:29:08;;;;;;;13.23;6.60;;;;;;;15.34;100.00;101237.09;5094728;28;20173;-88
2023/10/11 07:31:37;;;;;;;15.18;6.20;;;;;;;15.37;100.00;101232.00;5092558;28;20028;-88
2023/10/11 07:34:08;;;;;;;16.52;6.75;;;;;;;15.40;100.00;101242.47;5077217;28;20040;-88
2023/10/11 07:36:40;;;;;;;12.63;6.70;;;;;;;15.48;100.00;101234.97;5094538;28;20107;-88
2023/10/11 07:41:42;;;;;;;12.70;6.78;;;;;;;15.62;100.00;101222.72;5093716;28;20099;-88
2023/10/11 07:44:08;;;;;;;15.85;6.65;;;;;;;15.68;100.00;101223.66;5075762;28;20040;-88
2023/10/11 07:46:43;;;;;;;10.88;6.32;;;;;;;15.76;100.00;101234.22;5093438;28;20077;-88
2023/10/11 07:49:14;;;;;;;19.20;7.15;;;;;;;15.84;100.00;101233.06;5092862;28;20032;-88
2023/10/11 07:51:40;;;;;;;16.03;6.00;;;;;;;15.90;100.00;101208.31;5094939;28;20047;-87
2023/10/11 07:54:07;;;;;;;13.75;6.53;;;;;;;15.95;100.00;101216.59;5092383;28;20039;-88
2023/10/11 07:56:37;;;;;;;14.10;6.45;;;;;;;16.01;100.00;101231.22;5092968;28;20028;-88
2023/10/11 07:59:09;;;;;;;19.15;7.40;;;;;;;16.13;100.00;101223.81;5092760;28;20028;-88
2023/10/11 08:01:45;;;;;;;20.95;7.45;;;;;;;16.23;100.00;101228.66;5093549;28;20044;-88
2023/10/11 08:04:12;;;;;;;18.93;7.00;;;;;;;16.41;100.00;101216.66;5093929;28;20051;-88
2023/10/11 08:06:40;;;;;;;15.98;6.68;;;;;;;16.49;100.00;101223.69;5092432;28;20099;-88
2023/10/11 08:09:07;;;;;;;16.63;6.72;;;;;;;16.61;100.00;101223.63;5091928;28;20036;-88
2023/10/11 08:11:45;;;;;;;19.50;7.22;;;;;;;16.65;100.00;101217.41;5092249;28;20496;-88
2023/10/11 08:14:21;;;;;;;14.45;7.18;;;;;;;16.74;100.00;101220.56;5092828;28;20035;-87
2023/10/11 08:16:49;;;;;;;15.30;7.27;;;;;;;16.78;100.00;101224.44;5092264;28;20028;-88
2023/10/11 08:19:14;;;;;;;15.25;7.35;;;;;;;16.77;100.00;101214.56;5092458;28;20031;-88
2023/10/11 08:21:40;;;;;;;16.70;7.80;;;;;;;16.78;100.00;101223.63;5075478;28;20032;-88
2023/10/11 08:24:15;;;;;;;12.43;6.38;;;;;;;16.82;100.00;101231.09;5092817;28;20111;-88
2023/10/11 08:26:47;;;;;;;15.35;7.25;;;;;;;16.74;100.00;101247.97;5076473;28;20063;-88
2023/10/11 08:29:35;;;;;;;14.87;7.00;;;;;;;16.71;100.00;101244.88;5094030;28;20028;-88
2023/10/11 08:32:06;;;;;;;13.30;6.85;;;;;;;16.71;100.00;101247.59;5064356;28;20496;-88
2023/10/11 08:34:31;;;;;;;19.08;7.30;;;;;;;16.75;100.00;101240.56;5093856;28;20099;-88
2023/10/11 08:36:57;;;;;;;19.20;7.40;;;;;;;16.78;100.00;101238.13;5095822;28;20127;-88
2023/10/11 08:39:45;;;;;;;14.47;7.37;;;;;;;16.81;100.00;101231.34;5096035;28;20078;-88
2023/10/11 08:42:14;;;;;;;12.85;6.95;;;;;;;16.88;100.00;101240.28;5097128;28;20475;-88
2023/10/11 08:44:49;;;;;;;20.30;6.80;;;;;;;16.92;100.00;101240.59;5095985;28;20067;-88
2023/10/11 08:47:19;;;;;;;16.93;7.43;;;;;;;17.01;100.00;101239.94;5097592;28;20034;-88
2023/10/11 08:49:48;;;;;;;17.00;7.07;;;;;;;17.19;100.00;101243.50;5096966;28;20107;-87
2023/10/11 08:52:35;;;;;;;17.67;6.90;;;;;;;17.40;100.00;101238.34;5095656;28;20036;-88
2023/10/11 08:55:01;;;;;;;16.00;7.10;;;;;;;17.58;99.58;101248.19;5095907;28;20117;-87
2023/10/11 08:57:31;;;;;;;14.03;6.90;;;;;;;17.62;99.01;101241.13;5095174;28;20478;-88
2023/10/11 08:59:57;;;;;;;15.00;7.43;;;;;;;17.60;99.73;101248.75;5095556;28;20270;-87
2023/10/11 09:02:33;;;;;;;15.75;7.63;;;;;;;17.61;99.97;101256.78;5095495;28;20035;-87
2023/10/11 09:05:28;;;;;;;19.93;7.87;;;;;;;17.73;100.00;101262.16;5064210;28;20028;-87
2023/10/11 09:07:56;;;;;;;17.52;8.07;;;;;;;18.00;98.98;101265.00;5096184;28;20036;-88
2023/10/11 09:10:27;;;;;;;16.38;8.13;;;;;;;18.16;97.79;101268.75;5095107;28;20075;-87
2023/10/11 09:12:57;;;;;;;16.17;8.73;;;;;;;18.20;97.97;101269.91;5096004;28;20035;-87
2023/10/11 09:15:44;;;;;;;21.00;9.75;;;;;;;18.22;97.97;101266.91;5095556;28;20035;-87
2023/10/11 09:18:15;;;;;;;16.83;9.30;;;;;;;18.28;98.37;101260.38;5081396;28;20040;-87
2023/10/11 09:20:43;;;;;;;27.73;9.82;;;;;;;18.25;98.16;101260.91;5096419;28;20027;-87
2023/10/11 09:23:11;;;;;;;18.50;10.07;;;;;;;18.24;98.82;101249.06;5095058;28;20060;-88
2023/10/11 09:25:57;;;;;;;21.13;10.77;;;;;;;18.30;99.20;101258.19;5094890;28;20117;-88
2023/10/11 09:28:26;;;;;;;21.60;10.85;;;;;;;18.26;99.44;101264.47;5095563;28;20055;-87
2023/10/11 09:31:12;;;;;;;24.77;11.97;;;;;;;18.16;100.00;101270.66;5094722;28;20380;-88
2023/10/11 09:36:43;;;;;;;23.45;11.48;;;;;;;18.18;100.00;101283.06;5091236;28;20075;-87
2023/10/11 09:39:15;;;;;;;24.98;12.68;;;;;;;18.14;100.00;101278.34;5078226;28;20444;-88
2023/10/11 09:41:45;;;;;;;20.27;12.77;;;;;;;18.15;100.00;101285.50;5094992;28;20092;-87
2023/10/11 09:44:14;;;;;;;22.63;12.20;;;;;;;18.17;100.00;101294.28;5094467;28;20028;-87
2023/10/11 09:46:43;;;;;;;23.13;11.93;;;;;;;18.21;100.00;101287.22;5093712;28;20020;-88
2023/10/11 09:49:12;;;;;;;23.80;12.38;;;;;;;18.16;100.00;101285.25;5094507;28;20024;-87
2023/10/11 09:51:45;;;;;;;20.70;12.52;;;;;;;18.10;100.00;101275.28;5077745;28;20039;-87
2023/10/11 09:54:15;;;;;;;21.20;13.10;;;;;;;18.15;100.00;101277.25;5094468;28;20028;-87
2023/10/11 09:57:18;;;;;;;22.00;12.77;;;;;;;18.19;100.00;101283.91;5077903;28;20036;-88
2023/10/11 09:59:46;;;;;;;22.88;13.40;;;;;;;18.24;100.00;101270.22;5094432;28;20034;-88
2023/10/11 10:02:44;;;;;;;24.60;14.38;;;;;;;18.11;100.00;101263.19;5094261;28;20031;-88
2023/10/11 10:05:15;;;;;;;21.20;12.63;;;;;;;18.18;100.00;101282.25;5092388;28;20085;-88
2023/10/11 10:07:44;;;;;;;22.90;14.45;;;;;;;18.08;100.00;101268.38;5094370;28;20484;-87
2023/10/11 10:10:12;;;;;;;25.13;15.53;;;;;;;18.08;100.00;101280.19;5077608;28;20084;-88
2023/10/11 10:12:43;;;;;;;27.50;14.60;;;;;;;18.10;100.00;101289.00;5095471;28;20035;-87
2023/10/11 10:15:23;;;;;;;32.25;15.55;;;;;;;18.03;100.00;101286.44;5094783;28;20045;-87
2023/10/11 10:17:57;;;;;;;24.02;14.82;;;;;;;17.97;100.00;101294.88;5095574;28;20031;-88
2023/10/11 10:20:34;;;;;;;29.13;15.05;;;;;;;17.87;100.00;101303.75;5093729;28;20032;-87
2023/10/11 10:23:15;;;;;;;28.47;16.27;;;;;;;17.85;100.00;101305.94;5093765;28;20036;-87
2023/10/11 10:25:48;;;;;;;30.98;16.08;;;;;;;17.68;100.00;101309.53;5093896;28;20027;-87
2023/10/11 10:28:32;;;;;;;28.52;16.30;;;;;;;17.66;100.00;101306.22;5094184;28;20027;-88
2023/10/11 10:31:12;;;;;;;30.52;16.83;;;;;;;17.59;100.00;101285.53;5093582;28;20028;-88
2023/10/11 10:33:42;;;;;;;27.30;16.67;;;;;;;17.58;100.00;101292.91;5093663;28;20048;-87
2023/10/11 10:36:31;;;;;;;32.00;16.43;;;;;;;17.65;100.00;101310.03;5095024;28;20030;-88
2023/10/11 10:38:59;;;;;;;31.83;17.48;;;;;;;17.73;100.00;101280.50;5095024;28;20023;-89
2023/10/11 10:41:26;;;;;;;27.45;16.00;;;;;;;17.85;100.00;101284.81;5093315;28;20056;-88
2023/10/11 10:44:12;;;;;;;28.63;15.45;;;;;;;17.85;100.00;101284.00;5093422;28;20032;-87
2023/10/11 10:46:53;;;;;;;32.22;16.08;;;;;;;17.81;100.00;101280.09;5093710;28;20044;-88
2023/10/11 10:49:47;;;;;;;28.57;16.13;;;;;;;17.70;100.00;101284.56;5094692;28;20063;-88
2023/10/11 10:52:21;;;;;;;27.48;15.98;;;;;;;17.63;100.00;101295.75;5093315;28;20420;-88
2023/10/11 10:55:05;;;;;;;35.90;17.83;;;;;;;17.51;100.00;101287.63;5077072;28;20036;-88
2023/10/11 10:57:32;;;;;;;27.23;16.00;;;;;;;17.57;100.00;101301.41;5093442;28;20035;-88
2023/10/11 11:00:05;;;;;;;32.60;16.80;;;;;;;17.65;100.00;101295.50;5093397;28;20132;-88
2023/10/11 11:02:35;;;;;;;31.97;16.57;;;;;;;17.76;100.00;101283.59;5094311;28;20422;-87
2023/10/11 11:05:01;;;;;;;29.50;16.95;;;;;;;17.91;100.00;101287.63;5092815;28;20072;-88
2023/10/11 11:07:33;;;;;;;29.10;16.13;;;;;;;17.94;100.00;101277.00;5093960;28;20030;-88
2023/10/11 11:09:58;;;;;;;27.27;15.80;;;;;;;17.95;100.00;101283.31;5095063;28;20027;-88
2023/10/11 11:12:28;;;;;;;28.43;16.43;;;;;;;18.03;100.00;101288.38;5092724;28;20464;-88
2023/10/11 11:14:56;;;;;;;28.95;16.00;;;;;;;18.03;100.00;101275.47;5109996;28;20114;-87
2023/10/11 11:17:23;;;;;;;27.90;15.23;;;;;;;18.03;100.00;101267.22;5092602;28;20418;-88
2023/10/11 11:20:14;;;;;;;26.23;15.68;;;;;;;18.05;100.00;101256.84;5094138;28;20115;-88
2023/10/11 11:22:41;;;;;;;29.83;15.40;;;;;;;18.05;100.00;101247.75;5092899;28;20024;-88
2023/10/11 11:25:27;;;;;;;27.88;14.45;;;;;;;18.06;100.00;101255.72;5094144;28;20507;-87
2023/10/11 11:28:17;;;;;;;26.88;14.52;;;;;;;17.96;100.00;101250.09;5093309;28;20052;-88
2023/10/11 11:30:52;;;;;;;29.65;14.10;;;;;;;18.04;100.00;101257.06;5093047;28;20028;-88
2023/10/11 11:33:34;;;;;;;31.55;15.30;;;;;;;18.08;100.00;101252.72;5092661;28;20236;-87
2023/10/11 11:36:00;;;;;;;30.07;15.23;;;;;;;18.02;100.00;101243.59;5093646;28;20537;-88
2023/10/11 11:38:36;;;;;;;26.08;14.32;;;;;;;18.13;100.00;101243.72;5075800;28;20062;-87
2023/10/11 11:41:15;;;;;;;26.83;14.45;;;;;;;18.25;100.00;101244.44;5093372;28;20024;-88
2023/10/11 11:43:48;;;;;;;26.33;14.33;;;;;;;18.15;100.00;101216.84;5092679;28;20024;-87
2023/10/11 11:46:20;;;;;;;31.42;14.43;;;;;;;18.21;100.00;101216.63;5092682;28;20028;-88
2023/10/11 11:48:46;;;;;;;25.35;14.25;;;;;;;18.31;100.00;101223.34;5075854;28;20472;-88
2023/10/11 11:51:14;;;;;;;21.53;11.10;;;;;;;18.32;100.00;101222.22;5075672;28;20032;-88
2023/10/11 11:53:44;;;;;;;29.92;14.55;;;;;;;18.30;100.00;101213.44;5092234;28;20103;-88
2023/10/11 11:56:13;;;;;;;23.13;13.48;;;;;;;18.34;100.00;101223.63;5092602;28;20468;-88
2023/10/11 11:58:45;;;;;;;25.83;14.10;;;;;;;18.37;100.00;101220.38;5093778;28;20050;-88
2023/10/11 12:01:15;;;;;;;25.90;14.17;;;;;;;18.39;100.00;101226.47;5092593;28;20032;-88
2023/10/11 12:03:42;;;;;;;26.05;13.75;;;;;;;18.48;100.00;101213.06;5092660;28;20464;-87
2023/10/11 12:06:34;;;;;;;33.42;13.52;;;;;;;18.58;100.00;101196.66;5091949;28;20032;-88
2023/10/11 12:09:02;;;;;;;25.98;13.05;;;;;;;18.84;100.00;101199.66;5093569;28;20479;-90
2023/10/11 12:11:29;;;;;;;23.05;13.20;;;;;;;19.33;100.00;101184.09;5096149;28;20039;-88
2023/10/11 12:14:00;;;;;;;23.00;12.73;;;;;;;20.83;96.12;101172.41;5079208;28;20036;-87
2023/10/11 12:16:29;;;;;;;21.65;11.50;;;;;;;21.90;88.46;101181.53;5080483;28;20115;-88
2023/10/11 12:18:59;;;;;;;24.95;11.23;;;;;;;22.37;86.16;101162.78;5096538;28;20024;-88
2023/10/11 12:21:25;;;;;;;21.13;11.07;;;;;;;24.26;76.41;101170.16;5096244;28;20487;-88